This is the latest recevied weather packets stored in our database for station/object SR3WXD. If no packets are shown the sender has not sent any weather packets the latest 10 day(s).
| Time | Temp. | Humidity | Pressure | Rain* | Wind** | Luminosity | Snow |
|---|---|---|---|---|---|---|---|
| 1777929911 | 14.44° C | 68% | 986.7 hPa | 0 mm | - | - | - |
| 1777928110 | 15° C | 65% | 986.7 hPa | 0 mm | - | - | - |
| 1777926310 | 15.56° C | 63% | 986.7 hPa | 0 mm | - | - | - |
| 1777924535 | 16.11° C | 60% | 986.7 hPa | 0 mm | - | - | - |
| 1777922735 | 17.22° C | 57% | 986.7 hPa | 0 mm | - | - | - |
| 1777920935 | 17.78° C | 51% | 986.5 hPa | 0 mm | - | - | - |
| 1777919134 | 19.44° C | 48% | 986.2 hPa | 0 mm | - | - | - |
| 1777917334 | 20.56° C | 43% | 986 hPa | 0 mm | - | - | - |
| 1777915534 | 22.22° C | 40% | 986 hPa | 0 mm | - | - | - |
| 1777914334 | 22.22° C | 40% | 986.2 hPa | 0 mm | - | - | - |
| 1777912504 | 23.33° C | 34% | 986.2 hPa | 0 mm | - | - | - |
| 1777910703 | 23.89° C | 33% | 986.2 hPa | 0 mm | - | - | - |
| 1777908894 | 24.44° C | 33% | 986.4 hPa | 0 mm | - | - | - |
| 1777907094 | 25.56° C | 32% | 986.4 hPa | 0 mm | - | - | - |
| 1777905294 | 25° C | 33% | 986.5 hPa | 0 mm | - | - | - |
| 1777903494 | 24.44° C | 33% | 986.9 hPa | 0 mm | - | - | - |
| 1777901694 | 25° C | 32% | 987 hPa | 0 mm | - | - | - |
| 1777899894 | 27.78° C | 25% | 987.2 hPa | 0 mm | - | - | - |
| 1777690553 | 7.22° C | 79% | 999.2 hPa | 0 mm | - | - | - |
| 1777688753 | 7.78° C | 72% | 999.4 hPa | 0 mm | - | - | - |
| 1777686953 | 7.78° C | 71% | 999.4 hPa | 0 mm | - | - | - |
| 1777685153 | 7.78° C | 72% | 999.5 hPa | 0 mm | - | - | - |
| 1777683353 | 7.78° C | 71% | 999.5 hPa | 0 mm | - | - | - |
| 1777681552 | 7.78° C | 71% | 999.9 hPa | 0 mm | - | - | - |
| 1777679752 | 7.78° C | 70% | 999.7 hPa | 0 mm | - | - | - |
* Rain latest hour (hover to see other rain measurements)
** Current wind speed in m/s (hover to see current wind gust speed)